sensor_id;sensor_type;location;lat;lon;timestamp;pressure;altitude;pressure_sealevel;temperature;humidity
6034;BME280;3045;43.226;27.858;2024-02-16T00:01:54;148123.66;;;8.27;100.00
6034;BME280;3045;43.226;27.858;2024-02-16T00:04:21;148131.25;;;8.30;100.00
6034;BME280;3045;43.226;27.858;2024-02-16T00:06:50;148121.13;;;8.26;100.00
6034;BME280;3045;43.226;27.858;2024-02-16T00:09:17;148119.84;;;8.25;100.00
6034;BME280;3045;43.226;27.858;2024-02-16T00:11:44;148116.06;;;8.24;100.00
6034;BME280;3045;43.226;27.858;2024-02-16T00:14:12;148095.88;;;8.16;100.00
6034;BME280;3045;43.226;27.858;2024-02-16T00:16:39;148121.13;;;8.26;100.00
6034;BME280;3045;43.226;27.858;2024-02-16T00:19:07;148148.91;;;8.37;100.00
6034;BME280;3045;43.226;27.858;2024-02-16T00:21:34;148138.81;;;8.33;100.00
6034;BME280;3045;43.226;27.858;2024-02-16T00:24:02;148143.88;;;8.35;100.00
6034;BME280;3045;43.226;27.858;2024-02-16T00:26:30;148116.06;;;8.24;100.00
6034;BME280;3045;43.226;27.858;2024-02-16T00:28:57;148089.59;;;8.13;100.00
6034;BME280;3045;43.226;27.858;2024-02-16T00:31:24;148116.06;;;8.24;100.00
6034;BME280;3045;43.226;27.858;2024-02-16T00:33:51;148094.59;;;8.15;100.00
6034;BME280;3045;43.226;27.858;2024-02-16T00:36:18;148083.25;;;8.11;100.00
6034;BME280;3045;43.226;27.858;2024-02-16T00:38:45;148105.97;;;8.20;100.00
6034;BME280;3045;43.226;27.858;2024-02-16T00:41:19;148113.56;;;8.23;100.00
6034;BME280;3045;43.226;27.858;2024-02-16T00:43:46;148085.78;;;8.12;100.00
6034;BME280;3045;43.226;27.858;2024-02-16T00:46:13;148123.66;;;8.27;100.00
6034;BME280;3045;43.226;27.858;2024-02-16T00:48:40;148119.84;;;8.25;100.00
6034;BME280;3045;43.226;27.858;2024-02-16T00:51:07;148116.06;;;8.24;100.00
6034;BME280;3045;43.226;27.858;2024-02-16T00:53:34;148121.13;;;8.26;100.00
6034;BME280;3045;43.226;27.858;2024-02-16T00:56:01;148138.81;;;8.33;100.00
6034;BME280;3045;43.226;27.858;2024-02-16T00:58:30;148159.00;;;8.41;100.00
6034;BME280;3045;43.226;27.858;2024-02-16T01:00:57;148135.06;;;8.32;100.00
6034;BME280;3045;43.226;27.858;2024-02-16T01:03:24;148121.13;;;8.26;100.00
6034;BME280;3045;43.226;27.858;2024-02-16T01:05:51;148169.09;;;8.45;100.00
6034;BME280;3045;43.226;27.858;2024-02-16T01:08:18;148175.44;;;8.48;100.00
6034;BME280;3045;43.226;27.858;2024-02-16T01:10:46;148194.34;;;8.55;100.00
6034;BME280;3045;43.226;27.858;2024-02-16T01:13:13;148175.44;;;8.48;100.00
6034;BME280;3045;43.226;27.858;2024-02-16T01:15:41;148152.72;;;8.39;100.00
6034;BME280;3045;43.226;27.858;2024-02-16T01:18:08;148138.81;;;8.33;100.00
6034;BME280;3045;43.226;27.858;2024-02-16T01:20:36;148127.41;;;8.28;100.00
6034;BME280;3045;43.226;27.858;2024-02-16T01:23:03;148138.81;;;8.33;100.00
6034;BME280;3045;43.226;27.858;2024-02-16T01:25:30;148080.75;;;8.10;100.00
6034;BME280;3045;43.226;27.858;2024-02-16T01:27:58;148080.75;;;8.10;100.00
6034;BME280;3045;43.226;27.858;2024-02-16T01:30:25;148104.69;;;8.19;100.00
6034;BME280;3045;43.226;27.858;2024-02-16T01:32:53;148090.84;;;8.14;100.00
6034;BME280;3045;43.226;27.858;2024-02-16T01:35:21;148102.22;;;8.18;100.00
6034;BME280;3045;43.226;27.858;2024-02-16T01:37:48;148092.13;;;8.14;100.00
6034;BME280;3045;43.226;27.858;2024-02-16T01:40:15;148063.06;;;8.03;100.00
6034;BME280;3045;43.226;27.858;2024-02-16T01:42:43;148063.06;;;8.03;100.00
6034;BME280;3045;43.226;27.858;2024-02-16T01:45:10;148073.16;;;8.07;100.00
6034;BME280;3045;43.226;27.858;2024-02-16T01:47:38;148064.34;;;8.03;100.00
6034;BME280;3045;43.226;27.858;2024-02-16T01:50:08;148052.97;;;7.99;100.00
6034;BME280;3045;43.226;27.858;2024-02-16T01:52:35;148055.50;;;8.00;100.00
6034;BME280;3045;43.226;27.858;2024-02-16T01:55:04;148061.81;;;8.02;100.00
6034;BME280;3045;43.226;27.858;2024-02-16T01:57:34;148068.13;;;8.05;100.00
6034;BME280;3045;43.226;27.858;2024-02-16T02:00:02;148064.34;;;8.03;100.00
6034;BME280;3045;43.226;27.858;2024-02-16T02:02:31;148052.97;;;7.99;100.00
6034;BME280;3045;43.226;27.858;2024-02-16T02:04:58;148045.44;;;7.96;100.00
6034;BME280;3045;43.226;27.858;2024-02-16T02:07:26;148080.75;;;8.10;100.00
6034;BME280;3045;43.226;27.858;2024-02-16T02:09:54;148052.97;;;7.99;100.00
6034;BME280;3045;43.226;27.858;2024-02-16T02:12:21;148037.88;;;7.93;100.00
6034;BME280;3045;43.226;27.858;2024-02-16T02:14:49;148037.88;;;7.93;100.00
6034;BME280;3045;43.226;27.858;2024-02-16T02:17:17;148032.81;;;7.91;100.00
6034;BME280;3045;43.226;27.858;2024-02-16T02:19:45;147979.84;;;7.69;100.00
6034;BME280;3045;43.226;27.858;2024-02-16T02:22:15;148039.13;;;7.93;100.00
6034;BME280;3045;43.226;27.858;2024-02-16T02:24:42;148040.34;;;7.94;100.00
6034;BME280;3045;43.226;27.858;2024-02-16T02:27:10;148026.50;;;7.88;100.00
6034;BME280;3045;43.226;27.858;2024-02-16T02:29:37;148063.06;;;8.03;100.00
6034;BME280;3045;43.226;27.858;2024-02-16T02:32:04;148068.13;;;8.05;100.00
6034;BME280;3045;43.226;27.858;2024-02-16T02:34:32;148059.31;;;8.01;100.00
6034;BME280;3045;43.226;27.858;2024-02-16T02:36:59;148100.94;;;8.18;100.00
6034;BME280;3045;43.226;27.858;2024-02-16T02:39:27;148082.03;;;8.10;100.00
6034;BME280;3045;43.226;27.858;2024-02-16T02:41:54;148092.13;;;8.14;100.00
6034;BME280;3045;43.226;27.858;2024-02-16T02:44:23;148095.88;;;8.16;100.00
6034;BME280;3045;43.226;27.858;2024-02-16T02:46:50;148116.06;;;8.24;100.00
6034;BME280;3045;43.226;27.858;2024-02-16T02:49:17;148122.38;;;8.26;100.00
6034;BME280;3045;43.226;27.858;2024-02-16T02:51:44;148119.84;;;8.25;100.00
6034;BME280;3045;43.226;27.858;2024-02-16T02:54:12;148073.16;;;8.07;100.00
6034;BME280;3045;43.226;27.858;2024-02-16T02:56:40;148084.50;;;8.11;100.00
6034;BME280;3045;43.226;27.858;2024-02-16T02:59:08;148090.84;;;8.14;100.00
6034;BME280;3045;43.226;27.858;2024-02-16T03:01:36;148088.31;;;8.13;100.00
6034;BME280;3045;43.226;27.858;2024-02-16T03:04:03;148126.16;;;8.28;100.00
6034;BME280;3045;43.226;27.858;2024-02-16T03:06:31;148111.03;;;8.22;100.00
6034;BME280;3045;43.226;27.858;2024-02-16T03:08:58;148105.97;;;8.20;100.00
6034;BME280;3045;43.226;27.858;2024-02-16T03:11:25;148070.69;;;8.06;100.00
6034;BME280;3045;43.226;27.858;2024-02-16T03:13:54;148052.97;;;7.99;100.00
6034;BME280;3045;43.226;27.858;2024-02-16T03:16:21;148068.13;;;8.05;100.00
6034;BME280;3045;43.226;27.858;2024-02-16T03:18:48;148059.31;;;8.01;100.00
6034;BME280;3045;43.226;27.858;2024-02-16T03:21:15;148037.88;;;7.93;100.00
6034;BME280;3045;43.226;27.858;2024-02-16T03:23:42;148064.34;;;8.03;100.00
6034;BME280;3045;43.226;27.858;2024-02-16T03:26:16;148039.13;;;7.93;100.00
6034;BME280;3045;43.226;27.858;2024-02-16T03:28:44;148078.22;;;8.09;100.00
6034;BME280;3045;43.226;27.858;2024-02-16T03:31:19;148065.59;;;8.04;100.00
6034;BME280;3045;43.226;27.858;2024-02-16T03:33:46;148023.97;;;7.87;100.00
6034;BME280;3045;43.226;27.858;2024-02-16T03:36:13;148063.06;;;8.03;100.00
6034;BME280;3045;43.226;27.858;2024-02-16T03:38:43;148042.91;;;7.95;100.00
6034;BME280;3045;43.226;27.858;2024-02-16T03:41:12;148078.22;;;8.09;100.00
6034;BME280;3045;43.226;27.858;2024-02-16T03:43:40;148070.69;;;8.06;100.00
6034;BME280;3045;43.226;27.858;2024-02-16T03:46:08;148074.44;;;8.07;100.00
6034;BME280;3045;43.226;27.858;2024-02-16T03:48:36;148063.06;;;8.03;100.00
6034;BME280;3045;43.226;27.858;2024-02-16T03:51:04;148061.81;;;8.02;100.00
6034;BME280;3045;43.226;27.858;2024-02-16T03:53:31;148040.34;;;7.94;100.00
6034;BME280;3045;43.226;27.858;2024-02-16T03:55:58;148020.19;;;7.86;100.00
6034;BME280;3045;43.226;27.858;2024-02-16T03:58:25;148037.88;;;7.93;100.00
6034;BME280;3045;43.226;27.858;2024-02-16T04:00:52;147984.91;;;7.71;100.00
6034;BME280;3045;43.226;27.858;2024-02-16T04:03:19;148037.88;;;7.93;100.00
6034;BME280;3045;43.226;27.858;2024-02-16T04:05:48;148031.53;;;7.90;100.00
6034;BME280;3045;43.226;27.858;2024-02-16T04:08:15;148002.53;;;7.78;100.00
6034;BME280;3045;43.226;27.858;2024-02-16T04:10:42;148015.16;;;7.84;100.00
6034;BME280;3045;43.226;27.858;2024-02-16T04:13:09;148029.06;;;7.89;100.00
6034;BME280;3045;43.226;27.858;2024-02-16T04:15:36;148036.59;;;7.92;100.00
6034;BME280;3045;43.226;27.858;2024-02-16T04:18:04;148039.13;;;7.93;100.00
6034;BME280;3045;43.226;27.858;2024-02-16T04:20:32;148042.91;;;7.95;100.00
6034;BME280;3045;43.226;27.858;2024-02-16T04:23:00;148040.34;;;7.94;100.00
6034;BME280;3045;43.226;27.858;2024-02-16T04:25:28;148027.78;;;7.89;100.00
6034;BME280;3045;43.226;27.858;2024-02-16T04:27:55;148073.16;;;8.07;100.00
6034;BME280;3045;43.226;27.858;2024-02-16T04:30:22;148054.25;;;7.99;100.00
6034;BME280;3045;43.226;27.858;2024-02-16T04:32:49;148025.25;;;7.88;100.00
6034;BME280;3045;43.226;27.858;2024-02-16T04:35:16;148025.25;;;7.88;100.00
6034;BME280;3045;43.226;27.858;2024-02-16T04:37:43;148013.91;;;7.83;100.00
6034;BME280;3045;43.226;27.858;2024-02-16T04:40:12;148032.81;;;7.91;100.00
6034;BME280;3045;43.226;27.858;2024-02-16T04:42:39;147997.53;;;7.76;100.00
6034;BME280;3045;43.226;27.858;2024-02-16T04:45:10;147909.25;;;7.41;100.00
6034;BME280;3045;43.226;27.858;2024-02-16T04:47:37;147974.81;;;7.67;100.00
6034;BME280;3045;43.226;27.858;2024-02-16T04:50:05;147969.75;;;7.65;100.00
6034;BME280;3045;43.226;27.858;2024-02-16T04:52:36;147987.38;;;7.72;100.00
6034;BME280;3045;43.226;27.858;2024-02-16T04:55:04;147974.81;;;7.67;100.00
6034;BME280;3045;43.226;27.858;2024-02-16T04:57:33;147981.09;;;7.70;100.00
6034;BME280;3045;43.226;27.858;2024-02-16T05:00:00;147981.09;;;7.70;100.00
6034;BME280;3045;43.226;27.858;2024-02-16T05:02:27;148025.25;;;7.88;100.00
6034;BME280;3045;43.226;27.858;2024-02-16T05:04:54;148035.34;;;7.92;100.00
6034;BME280;3045;43.226;27.858;2024-02-16T05:07:21;148035.34;;;7.92;100.00
6034;BME280;3045;43.226;27.858;2024-02-16T05:09:48;148005.06;;;7.79;100.00
6034;BME280;3045;43.226;27.858;2024-02-16T05:12:21;148055.50;;;8.00;100.00
6034;BME280;3045;43.226;27.858;2024-02-16T05:14:50;148050.44;;;7.98;100.00
6034;BME280;3045;43.226;27.858;2024-02-16T05:17:18;148071.88;;;8.06;100.00
6034;BME280;3045;43.226;27.858;2024-02-16T05:19:45;148035.34;;;7.92;100.00
6034;BME280;3045;43.226;27.858;2024-02-16T05:22:12;148046.69;;;7.96;100.00
6034;BME280;3045;43.226;27.858;2024-02-16T05:24:40;148050.44;;;7.98;100.00
6034;BME280;3045;43.226;27.858;2024-02-16T05:27:07;148047.97;;;7.97;100.00
6034;BME280;3045;43.226;27.858;2024-02-16T05:29:36;148051.72;;;7.98;100.00
6034;BME280;3045;43.226;27.858;2024-02-16T05:32:05;148063.06;;;8.03;100.00
6034;BME280;3045;43.226;27.858;2024-02-16T05:34:32;148071.88;;;8.06;100.00
6034;BME280;3045;43.226;27.858;2024-02-16T05:37:04;148082.03;;;8.10;100.00
6034;BME280;3045;43.226;27.858;2024-02-16T05:39:32;148088.31;;;8.13;100.00
6034;BME280;3045;43.226;27.858;2024-02-16T05:42:01;148098.41;;;8.17;100.00
6034;BME280;3045;43.226;27.858;2024-02-16T05:44:29;148082.03;;;8.10;100.00
6034;BME280;3045;43.226;27.858;2024-02-16T05:46:58;148073.16;;;8.07;100.00
6034;BME280;3045;43.226;27.858;2024-02-16T05:49:26;148071.88;;;8.06;100.00
6034;BME280;3045;43.226;27.858;2024-02-16T05:51:55;148088.31;;;8.13;100.00
6034;BME280;3045;43.226;27.858;2024-02-16T05:54:42;148122.38;;;8.26;100.00
6034;BME280;3045;43.226;27.858;2024-02-16T05:57:09;148141.34;;;8.34;100.00
6034;BME280;3045;43.226;27.858;2024-02-16T05:59:38;148156.47;;;8.40;100.00
6034;BME280;3045;43.226;27.858;2024-02-16T06:02:05;148151.44;;;8.38;100.00
6034;BME280;3045;43.226;27.858;2024-02-16T06:04:35;148116.06;;;8.24;100.00
6034;BME280;3045;43.226;27.858;2024-02-16T06:07:03;148131.25;;;8.30;100.00
6034;BME280;3045;43.226;27.858;2024-02-16T06:09:31;148122.38;;;8.26;100.00
6034;BME280;3045;43.226;27.858;2024-02-16T06:12:02;148118.59;;;8.25;100.00
6034;BME280;3045;43.226;27.858;2024-02-16T06:14:31;148055.50;;;8.00;100.00
6034;BME280;3045;43.226;27.858;2024-02-16T06:16:58;148020.19;;;7.86;100.00
6034;BME280;3045;43.226;27.858;2024-02-16T06:19:25;146466.44;;;7.81;100.00
6034;BME280;3045;43.226;27.858;2024-02-16T06:21:54;134876.22;;;7.78;100.00
6034;BME280;3045;43.226;27.858;2024-02-16T06:24:21;116596.41;;;7.81;100.00
6034;BME280;3045;43.226;27.858;2024-02-16T06:26:49;110026.69;;;7.86;100.00
6034;BME280;3045;43.226;27.858;2024-02-16T06:29:16;103114.75;;;7.75;100.00
6034;BME280;3045;43.226;27.858;2024-02-16T06:31:43;98873.78;;;7.87;100.00
6034;BME280;3045;43.226;27.858;2024-02-16T06:34:10;99523.06;;;7.84;100.00
6034;BME280;3045;43.226;27.858;2024-02-16T06:36:37;95582.31;;;7.76;100.00
6034;BME280;3045;43.226;27.858;2024-02-16T06:39:05;94960.44;;;7.97;100.00
6034;BME280;3045;43.226;27.858;2024-02-16T06:41:32;93318.09;;;7.93;100.00
6034;BME280;3045;43.226;27.858;2024-02-16T06:43:59;93972.34;;;7.93;100.00
6034;BME280;3045;43.226;27.858;2024-02-16T06:46:26;94305.97;;;7.97;100.00
6034;BME280;3045;43.226;27.858;2024-02-16T06:48:54;96274.69;;;8.00;100.00
6034;BME280;3045;43.226;27.858;2024-02-16T06:51:23;98559.69;;;7.95;100.00
6034;BME280;3045;43.226;27.858;2024-02-16T06:53:52;99244.63;;;8.13;100.00
6034;BME280;3045;43.226;27.858;2024-02-16T06:56:20;98261.50;;;8.13;100.00
6034;BME280;3045;43.226;27.858;2024-02-16T06:58:47;101210.00;;;8.12;100.00
6034;BME280;3045;43.226;27.858;2024-02-16T07:01:15;103211.72;;;8.31;100.00
6034;BME280;3045;43.226;27.858;2024-02-16T07:03:44;108774.63;;;8.19;100.00
6034;BME280;3045;43.226;27.858;2024-02-16T07:06:11;119657.59;;;8.29;100.00
6034;BME280;3045;43.226;27.858;2024-02-16T07:08:39;116613.34;;;7.90;100.00
6034;BME280;3045;43.226;27.858;2024-02-16T07:11:06;117966.88;;;8.08;100.00
6034;BME280;3045;43.226;27.858;2024-02-16T07:13:35;123828.75;;;7.72;100.00
6034;BME280;3045;43.226;27.858;2024-02-16T07:16:04;107057.50;;;7.78;100.00
6034;BME280;3045;43.226;27.858;2024-02-16T07:18:32;102465.97;;;7.79;100.00
6034;BME280;3045;43.226;27.858;2024-02-16T07:20:59;95927.59;;;7.88;100.00
6034;BME280;3045;43.226;27.858;2024-02-16T07:23:26;92998.94;;;7.98;100.00
6034;BME280;3045;43.226;27.858;2024-02-16T07:25:55;93988.41;;;8.03;100.00
6034;BME280;3045;43.226;27.858;2024-02-16T07:28:28;100192.94;;;7.92;100.00
6034;BME280;3045;43.226;27.858;2024-02-16T07:30:57;104474.84;;;8.03;100.00
6034;BME280;3045;43.226;27.858;2024-02-16T07:33:25;109344.31;;;7.72;100.00
6034;BME280;3045;43.226;27.858;2024-02-16T07:35:53;110026.69;;;7.86;100.00
6034;BME280;3045;43.226;27.858;2024-02-16T07:38:21;111997.13;;;7.85;100.00
6034;BME280;3045;43.226;27.858;2024-02-16T07:40:48;112683.63;;;8.00;100.00
6034;BME280;3045;43.226;27.858;2024-02-16T07:43:16;106455.50;;;8.09;100.00
6034;BME280;3045;43.226;27.858;2024-02-16T07:45:43;98243.03;;;8.02;100.00
6034;BME280;3045;43.226;27.858;2024-02-16T07:48:12;96301.03;;;8.16;100.00
6034;BME280;3045;43.226;27.858;2024-02-16T07:50:39;95582.31;;;7.76;100.00
6034;BME280;3045;43.226;27.858;2024-02-16T07:53:06;89736.53;;;8.02;100.00
6034;BME280;3045;43.226;27.858;2024-02-16T07:55:35;94642.88;;;8.03;100.00
6034;BME280;3045;43.226;27.858;2024-02-16T07:58:02;96912.97;;;7.90;100.00
6034;BME280;3045;43.226;27.858;2024-02-16T08:00:29;97944.72;;;8.19;100.00
6034;BME280;3045;43.226;27.858;2024-02-16T08:02:56;99577.50;;;8.16;100.00
6034;BME280;3045;43.226;27.858;2024-02-16T08:05:25;105503.69;;;8.27;100.00
6034;BME280;3045;43.226;27.858;2024-02-16T08:07:52;116353.56;;;8.25;100.00
6034;BME280;3045;43.226;27.858;2024-02-16T08:10:25;124925.38;;;8.22;100.00
6034;BME280;3045;43.226;27.858;2024-02-16T08:12:52;128885.41;;;8.21;100.00
6034;BME280;3045;43.226;27.858;2024-02-16T08:15:19;131742.75;;;8.37;100.00
6034;BME280;3045;43.226;27.858;2024-02-16T08:17:49;128983.78;;;8.54;100.00
6034;BME280;3045;43.226;27.858;2024-02-16T08:20:16;134205.31;;;8.70;100.00
6034;BME280;3045;43.226;27.858;2024-02-16T08:22:45;147020.00;;;8.71;100.00
6034;BME280;3045;43.226;27.858;2024-02-16T08:25:12;147969.72;;;8.54;100.00
6034;BME280;3045;43.226;27.858;2024-02-16T08:27:39;148234.72;;;8.71;100.00
6034;BME280;3045;43.226;27.858;2024-02-16T08:30:07;148201.91;;;8.58;100.00
6034;BME280;3045;43.226;27.858;2024-02-16T08:32:35;148171.63;;;8.46;100.00
6034;BME280;3045;43.226;27.858;2024-02-16T08:35:03;148190.56;;;8.54;100.00
6034;BME280;3045;43.226;27.858;2024-02-16T08:37:30;147075.25;;;8.20;100.00
6034;BME280;3045;43.226;27.858;2024-02-16T08:39:59;135501.50;;;8.22;100.00
6034;BME280;3045;43.226;27.858;2024-02-16T08:42:26;130993.47;;;8.21;100.00
6034;BME280;3045;43.226;27.858;2024-02-16T08:44:56;127914.56;;;8.31;100.00
6034;BME280;3045;43.226;27.858;2024-02-16T08:47:25;123308.91;;;8.40;100.00
6034;BME280;3045;43.226;27.858;2024-02-16T08:49:53;125281.88;;;8.36;100.00
6034;BME280;3045;43.226;27.858;2024-02-16T08:52:20;129576.31;;;7.93;100.00
6034;BME280;3045;43.226;27.858;2024-02-16T08:54:47;114933.09;;;7.72;100.00
6034;BME280;3045;43.226;27.858;2024-02-16T08:57:25;106639.91;;;7.29;100.00
6034;BME280;3045;43.226;27.858;2024-02-16T08:59:52;95514.44;;;7.34;100.00
6034;BME280;3045;43.226;27.858;2024-02-16T09:02:19;91282.59;;;7.45;100.00
6034;BME280;3045;43.226;27.858;2024-02-16T09:04:56;89010.53;;;7.54;100.00
6034;BME280;3045;43.226;27.858;2024-02-16T09:07:23;93575.47;;;7.49;100.00
6034;BME280;3045;43.226;27.858;2024-02-16T09:09:51;91923.34;;;7.37;100.00
6034;BME280;3045;43.226;27.858;2024-02-16T09:12:18;86045.41;;;7.35;100.00
6034;BME280;3045;43.226;27.858;2024-02-16T09:14:47;89337.81;;;7.55;100.00
6034;BME280;3045;43.226;27.858;2024-02-16T09:17:14;83144.59;;;7.58;100.00
6034;BME280;3045;43.226;27.858;2024-02-16T09:19:43;85109.56;;;7.64;100.00
6034;BME280;3045;43.226;27.858;2024-02-16T09:22:14;89031.88;;;7.68;100.00
6034;BME280;3045;43.226;27.858;2024-02-16T09:24:41;90020.19;;;7.74;100.00
6034;BME280;3045;43.226;27.858;2024-02-16T09:27:12;88078.00;;;7.86;100.00
6034;BME280;3045;43.226;27.858;2024-02-16T09:29:40;92319.56;;;7.81;100.00
6034;BME280;3045;43.226;27.858;2024-02-16T09:32:09;94598.38;;;7.75;100.00
6034;BME280;3045;43.226;27.858;2024-02-16T09:34:36;93303.72;;;7.84;100.00
6034;BME280;3045;43.226;27.858;2024-02-16T09:37:03;95280.38;;;7.92;100.00
6034;BME280;3045;43.226;27.858;2024-02-16T09:39:30;96246.69;;;7.82;100.00
6034;BME280;3045;43.226;27.858;2024-02-16T09:41:57;91332.63;;;7.77;100.00
6034;BME280;3045;43.226;27.858;2024-02-16T09:44:25;83802.28;;;7.62;100.00
6034;BME280;3045;43.226;27.858;2024-02-16T09:46:53;80910.94;;;7.93;100.00
6034;BME280;3045;43.226;27.858;2024-02-16T09:49:22;88097.63;;;7.99;100.00
6034;BME280;3045;43.226;27.858;2024-02-16T09:51:50;88396.28;;;7.80;100.00
6034;BME280;3045;43.226;27.858;2024-02-16T09:54:17;88742.63;;;7.93;100.00
6034;BME280;3045;43.226;27.858;2024-02-16T09:56:45;90688.38;;;7.84;100.00
6034;BME280;3045;43.226;27.858;2024-02-16T09:59:12;91007.38;;;7.78;100.00
6034;BME280;3045;43.226;27.858;2024-02-16T10:01:39;87099.97;;;7.87;100.00
6034;BME280;3045;43.226;27.858;2024-02-16T10:04:07;85800.22;;;7.91;100.00
6034;BME280;3045;43.226;27.858;2024-02-16T10:06:47;92657.63;;;7.89;100.00
6034;BME280;3045;43.226;27.858;2024-02-16T10:09:23;98898.31;;;8.02;100.00
6034;BME280;3045;43.226;27.858;2024-02-16T10:11:50;98232.09;;;7.95;100.00
6034;BME280;3045;43.226;27.858;2024-02-16T10:14:18;99540.06;;;7.94;100.00
6034;BME280;3045;43.226;27.858;2024-02-16T10:16:47;90691.47;;;7.86;100.00
6034;BME280;3045;43.226;27.858;2024-02-16T10:19:17;93635.56;;;7.87;100.00
6034;BME280;3045;43.226;27.858;2024-02-16T10:21:46;93961.06;;;7.86;100.00
6034;BME280;3045;43.226;27.858;2024-02-16T10:24:13;95586.41;;;7.79;100.00
6034;BME280;3045;43.226;27.858;2024-02-16T10:26:41;93625.97;;;7.80;100.00
6034;BME280;3045;43.226;27.858;2024-02-16T10:29:09;91674.38;;;7.87;100.00
6034;BME280;3045;43.226;27.858;2024-02-16T10:31:37;86754.19;;;7.73;100.00
6034;BME280;3045;43.226;27.858;2024-02-16T10:34:05;86755.69;;;7.74;100.00
6034;BME280;3045;43.226;27.858;2024-02-16T10:36:34;83496.34;;;7.76;100.00
6034;BME280;3045;43.226;27.858;2024-02-16T10:39:04;79910.00;;;7.75;100.00
6034;BME280;3045;43.226;27.858;2024-02-16T10:41:34;76963.78;;;7.63;100.00
6034;BME280;3045;43.226;27.858;2024-02-16T10:44:02;72760.13;;;7.82;100.00
6034;BME280;3045;43.226;27.858;2024-02-16T10:46:29;76007.34;;;7.78;100.00
6034;BME280;3045;43.226;27.858;2024-02-16T10:48:59;72778.91;;;7.98;100.00
6034;BME280;3045;43.226;27.858;2024-02-16T10:51:31;74740.81;;;8.06;100.00
6034;BME280;3045;43.226;27.858;2024-02-16T10:54:03;80920.66;;;8.00;100.00
6034;BME280;3045;43.226;27.858;2024-02-16T10:56:34;87480.44;;;8.23;100.00
6034;BME280;3045;43.226;27.858;2024-02-16T10:59:02;102524.63;;;8.13;100.00
6034;BME280;3045;43.226;27.858;2024-02-16T11:01:36;105501.00;;;8.26;100.00
6034;BME280;3045;43.226;27.858;2024-02-16T11:04:04;108145.97;;;8.35;100.00
6034;BME280;3045;43.226;27.858;2024-02-16T11:06:45;113387.03;;;8.23;100.00
6034;BME280;3045;43.226;27.858;2024-02-16T11:09:26;119919.81;;;7.96;100.00
6034;BME280;3045;43.226;27.858;2024-02-16T11:11:54;119664.72;;;8.33;100.00
6034;BME280;3045;43.226;27.858;2024-02-16T11:14:21;118667.38;;;8.28;100.00
6034;BME280;3045;43.226;27.858;2024-02-16T11:16:54;124252.88;;;8.17;100.00
6034;BME280;3045;43.226;27.858;2024-02-16T11:19:22;122923.16;;;8.13;100.00
6034;BME280;3045;43.226;27.858;2024-02-16T11:21:56;123582.13;;;8.12;100.00
6034;BME280;3045;43.226;27.858;2024-02-16T11:24:32;116988.53;;;8.13;100.00
6034;BME280;3045;43.226;27.858;2024-02-16T11:27:02;119632.03;;;8.16;100.00
6034;BME280;3045;43.226;27.858;2024-02-16T11:29:34;116994.50;;;8.16;100.00
6034;BME280;3045;43.226;27.858;2024-02-16T11:32:02;119953.56;;;8.12;100.00
6034;BME280;3045;43.226;27.858;2024-02-16T11:34:29;127522.03;;;8.02;100.00
6034;BME280;3045;43.226;27.858;2024-02-16T11:36:57;139830.38;;;8.17;100.00
6034;BME280;3045;43.226;27.858;2024-02-16T11:39:25;139959.22;;;8.40;100.00
6034;BME280;3045;43.226;27.858;2024-02-16T11:42:04;148094.59;;;8.15;100.00
6034;BME280;3045;43.226;27.858;2024-02-16T11:44:33;148152.72;;;8.39;100.00
6034;BME280;3045;43.226;27.858;2024-02-16T11:47:02;148152.72;;;8.39;100.00
6034;BME280;3045;43.226;27.858;2024-02-16T11:49:31;148141.34;;;8.34;100.00
6034;BME280;3045;43.226;27.858;2024-02-16T11:52:00;146961.97;;;7.95;100.00
6034;BME280;3045;43.226;27.858;2024-02-16T11:54:27;135219.44;;;8.18;100.00
6034;BME280;3045;43.226;27.858;2024-02-16T11:56:55;135306.31;;;8.26;100.00
6034;BME280;3045;43.226;27.858;2024-02-16T11:59:24;140329.56;;;7.95;100.00
6034;BME280;3045;43.226;27.858;2024-02-16T12:01:52;123511.56;;;7.78;100.00
6034;BME280;3045;43.226;27.858;2024-02-16T12:04:21;115270.00;;;7.76;100.00
6034;BME280;3045;43.226;27.858;2024-02-16T12:06:51;115278.84;;;7.80;100.00
6034;BME280;3045;43.226;27.858;2024-02-16T12:09:18;112283.75;;;7.62;100.00
6034;BME280;3045;43.226;27.858;2024-02-16T12:11:47;100487.16;;;7.72;100.00
6034;BME280;3045;43.226;27.858;2024-02-16T12:14:15;98879.69;;;7.91;100.00
6034;BME280;3045;43.226;27.858;2024-02-16T12:16:46;104737.72;;;7.66;100.00
6034;BME280;3045;43.226;27.858;2024-02-16T12:19:14;105070.25;;;7.68;100.00
6034;BME280;3045;43.226;27.858;2024-02-16T12:21:41;106084.47;;;7.85;100.00
6034;BME280;3045;43.226;27.858;2024-02-16T12:24:08;103168.47;;;8.06;100.00
6034;BME280;3045;43.226;27.858;2024-02-16T12:26:36;111026.00;;;7.93;100.00
6034;BME280;3045;43.226;27.858;2024-02-16T12:29:03;124174.53;;;7.80;100.00
6034;BME280;3045;43.226;27.858;2024-02-16T12:31:30;119854.41;;;7.63;100.00
6034;BME280;3045;43.226;27.858;2024-02-16T12:33:59;111647.34;;;7.73;100.00
6034;BME280;3045;43.226;27.858;2024-02-16T12:36:26;116921.69;;;7.79;100.00
6034;BME280;3045;43.226;27.858;2024-02-16T12:38:53;120219.69;;;7.81;100.00
6034;BME280;3045;43.226;27.858;2024-02-16T12:41:20;130357.22;;;7.94;100.00
6034;BME280;3045;43.226;27.858;2024-02-16T12:43:48;132675.88;;;7.90;100.00
6034;BME280;3045;43.226;27.858;2024-02-16T12:46:15;139560.16;;;8.02;100.00
6034;BME280;3045;43.226;27.858;2024-02-16T12:48:42;132977.56;;;7.84;100.00
6034;BME280;3045;43.226;27.858;2024-02-16T12:51:11;133020.06;;;7.84;100.00
6034;BME280;3045;43.226;27.858;2024-02-16T12:53:38;139170.69;;;7.83;100.00
6034;BME280;3045;43.226;27.858;2024-02-16T12:56:07;140452.03;;;7.77;100.00
6034;BME280;3045;43.226;27.858;2024-02-16T12:58:35;141137.19;;;7.84;100.00
6034;BME280;3045;43.226;27.858;2024-02-16T13:01:02;142463.69;;;8.06;100.00
6034;BME280;3045;43.226;27.858;2024-02-16T13:03:33;148020.19;;;7.86;100.00
6034;BME280;3045;43.226;27.858;2024-02-16T13:06:01;148046.69;;;7.96;100.00
6034;BME280;3045;43.226;27.858;2024-02-16T13:08:30;141310.41;;;7.56;100.00